createdAt,value
2022-08-05T00:00:04.999Z,99.90
2022-08-05T00:02:52.733Z,99.90
2022-08-05T00:06:04.978Z,99.90
2022-08-05T00:08:47.519Z,99.90
2022-08-05T00:11:47.488Z,99.90
2022-08-05T00:14:37.492Z,99.90
2022-08-05T00:17:25.853Z,99.90
2022-08-05T00:20:13.556Z,99.90
2022-08-05T00:23:12.864Z,99.90
2022-08-05T00:26:00.921Z,99.90
2022-08-05T00:28:49.371Z,99.90
2022-08-05T00:31:54.265Z,99.90
2022-08-05T00:35:04.623Z,99.90
2022-08-05T00:37:54.482Z,99.90
2022-08-05T00:40:51.906Z,99.90
2022-08-05T00:43:47.012Z,99.90
2022-08-05T00:46:42.651Z,99.90
2022-08-05T00:49:44.779Z,99.90
2022-08-05T00:52:39.442Z,99.90
2022-08-05T00:55:42.438Z,99.90
2022-08-05T00:58:30.947Z,99.90
2022-08-05T01:01:24.931Z,99.90
2022-08-05T01:04:26.785Z,99.90
2022-08-05T01:07:18.493Z,99.90
2022-08-05T01:10:09.062Z,99.90
2022-08-05T01:13:05.339Z,99.90
2022-08-05T01:16:02.250Z,99.90
2022-08-05T01:18:56.386Z,99.90
2022-08-05T01:21:58.355Z,99.90
2022-08-05T01:24:53.198Z,99.90
2022-08-05T01:27:55.344Z,99.90
2022-08-05T01:30:50.674Z,99.90
2022-08-05T01:33:49.180Z,99.90
2022-08-05T01:36:47.137Z,99.90
2022-08-05T01:39:46.224Z,99.90
2022-08-05T01:42:36.818Z,99.90
2022-08-05T01:45:27.690Z,99.90
2022-08-05T01:48:23.548Z,99.90
2022-08-05T01:51:12.074Z,99.90
2022-08-05T01:54:02.171Z,99.90
2022-08-05T01:58:12.973Z,99.90
2022-08-05T02:00:00.638Z,99.90
2022-08-05T02:02:54.925Z,99.90
2022-08-05T02:05:44.487Z,99.90
2022-08-05T02:08:40.863Z,99.90
2022-08-05T02:11:51.351Z,99.90
2022-08-05T02:14:43.567Z,99.90
2022-08-05T02:18:31.138Z,99.90
2022-08-05T02:20:49.564Z,99.90
2022-08-05T02:23:39.146Z,99.90
2022-08-05T02:26:28.603Z,99.90
2022-08-05T02:29:21.470Z,99.90
2022-08-05T02:32:12.552Z,99.90
2022-08-05T02:35:14.192Z,99.90
2022-08-05T02:38:03.732Z,99.90
2022-08-05T02:40:51.891Z,99.90
2022-08-05T02:44:06.252Z,99.90
2022-08-05T02:46:58.721Z,99.90
2022-08-05T02:49:51.012Z,99.90
2022-08-05T02:52:38.390Z,99.90
2022-08-05T02:55:54.045Z,99.90
2022-08-05T02:58:43.780Z,99.90
2022-08-05T03:01:32.492Z,99.90
2022-08-05T03:04:20.675Z,99.90
2022-08-05T03:07:17.611Z,99.90
2022-08-05T03:10:24.501Z,99.90
2022-08-05T03:13:17.088Z,99.90
2022-08-05T03:16:04.774Z,99.90
2022-08-05T03:18:52.354Z,99.90
2022-08-05T03:21:41.597Z,99.90
2022-08-05T03:24:36.562Z,99.90
2022-08-05T03:27:29.540Z,99.90
2022-08-05T03:30:33.547Z,99.90
2022-08-05T03:33:22.380Z,99.90
2022-08-05T03:36:30.177Z,99.90
2022-08-05T03:39:26.620Z,99.90
2022-08-05T03:42:14.933Z,99.90
2022-08-05T03:45:21.846Z,99.90
2022-08-05T03:48:12.331Z,99.90
2022-08-05T03:52:36.629Z,99.90
2022-08-05T03:55:51.303Z,99.90
2022-08-05T03:57:20.394Z,99.90
2022-08-05T04:00:08.937Z,99.90
2022-08-05T04:03:04.292Z,99.90
2022-08-05T04:05:53.668Z,99.90
2022-08-05T04:08:41.152Z,99.90
2022-08-05T04:11:47.314Z,99.90
2022-08-05T04:14:37.115Z,99.90
2022-08-05T04:17:25.339Z,99.90
2022-08-05T04:20:32.975Z,99.90
2022-08-05T04:24:05.015Z,99.90
2022-08-05T04:26:32.558Z,99.90
2022-08-05T04:29:20.041Z,99.90
2022-08-05T04:32:08.060Z,99.90
2022-08-05T04:34:57.595Z,99.90
2022-08-05T04:38:02.480Z,99.90
2022-08-05T04:40:54.236Z,99.90
2022-08-05T04:43:48.070Z,99.90
2022-08-05T04:46:35.591Z,99.90
2022-08-05T04:49:38.067Z,99.90
2022-08-05T04:52:27.741Z,99.90
2022-08-05T04:55:15.505Z,99.90
2022-08-05T04:58:05.575Z,99.90
2022-08-05T05:00:59.889Z,99.90
2022-08-05T05:03:47.984Z,99.90
2022-08-05T05:06:40.409Z,99.90
2022-08-05T05:09:32.373Z,99.90
2022-08-05T05:12:27.315Z,99.90
2022-08-05T05:15:17.485Z,99.90
2022-08-05T05:18:28.731Z,99.90
2022-08-05T05:21:21.162Z,99.90
2022-08-05T05:24:15.351Z,99.90
2022-08-05T05:27:06.038Z,99.90
2022-08-05T05:30:04.927Z,99.90
2022-08-05T05:32:54.091Z,99.90
2022-08-05T05:35:42.547Z,99.90
2022-08-05T05:38:30.220Z,99.90
2022-08-05T05:41:18.515Z,99.90
2022-08-05T05:44:26.995Z,99.90
2022-08-05T05:47:21.605Z,99.90
2022-08-05T05:50:11.506Z,99.90
2022-08-05T05:53:20.727Z,99.90
2022-08-05T05:56:09.947Z,99.90
2022-08-05T05:58:57.592Z,99.90
2022-08-05T06:01:57.313Z,99.90
2022-08-05T06:04:49.173Z,99.90
2022-08-05T06:07:42.073Z,99.90
2022-08-05T06:10:29.674Z,99.90
2022-08-05T06:13:24.259Z,99.90
2022-08-05T06:16:28.194Z,99.90
2022-08-05T06:19:34.199Z,99.90
2022-08-05T06:22:24.186Z,99.90
2022-08-05T06:25:59.467Z,99.90
2022-08-05T06:28:21.702Z,99.90
2022-08-05T06:31:11.326Z,99.90
2022-08-05T06:34:08.931Z,99.90
2022-08-05T06:36:58.156Z,99.90
2022-08-05T06:39:46.288Z,99.90
2022-08-05T06:42:35.348Z,99.90
2022-08-05T06:45:44.414Z,99.90
2022-08-05T06:48:50.531Z,99.90
2022-08-05T06:51:40.679Z,99.90
2022-08-05T06:54:28.766Z,99.90
2022-08-05T06:57:57.227Z,99.90
2022-08-05T07:00:27.246Z,99.90
2022-08-05T07:03:17.263Z,99.90
2022-08-05T07:06:05.748Z,99.90
2022-08-05T07:09:04.035Z,99.90
2022-08-05T07:11:52.603Z,99.90
2022-08-05T07:14:57.085Z,99.90
2022-08-05T07:18:01.162Z,99.90
2022-08-05T07:20:53.622Z,99.90
2022-08-05T07:23:49.136Z,99.90
2022-08-05T07:26:37.772Z,99.90
2022-08-05T07:30:27.213Z,99.90
2022-08-05T07:32:36.015Z,99.90
2022-08-05T07:36:02.709Z,99.90
2022-08-05T07:38:35.325Z,99.90
2022-08-05T07:42:07.915Z,99.90
2022-08-05T07:44:41.042Z,99.90
2022-08-05T07:47:41.981Z,99.90
2022-08-05T07:50:32.532Z,99.90
2022-08-05T07:53:21.158Z,99.90
2022-08-05T07:57:00.286Z,99.90
2022-08-05T07:59:23.236Z,99.90
2022-08-05T08:02:18.943Z,99.90
2022-08-05T08:05:07.020Z,99.90
2022-08-05T08:08:00.295Z,99.90
2022-08-05T08:10:49.024Z,99.90
2022-08-05T08:13:42.686Z,99.90
2022-08-05T08:16:50.322Z,99.90
2022-08-05T08:20:22.841Z,99.90
2022-08-05T08:22:51.676Z,99.90
2022-08-05T08:25:59.004Z,99.90
2022-08-05T08:28:59.035Z,99.90
2022-08-05T08:31:47.439Z,99.90
2022-08-05T08:34:35.843Z,99.90
2022-08-05T08:37:24.039Z,99.90
2022-08-05T08:40:15.500Z,99.90
2022-08-05T08:44:56.441Z,99.90
2022-08-05T08:46:15.578Z,99.90
2022-08-05T08:50:05.347Z,99.90
2022-08-05T08:52:14.478Z,99.90
2022-08-05T08:55:03.492Z,99.90
2022-08-05T08:58:01.544Z,99.90
2022-08-05T09:00:52.246Z,99.90
2022-08-05T09:03:45.073Z,99.90
2022-08-05T09:06:33.097Z,99.90
2022-08-05T09:09:23.690Z,99.90
2022-08-05T09:12:20.665Z,99.90
2022-08-05T09:15:15.125Z,99.90
2022-08-05T09:18:03.919Z,99.90
2022-08-05T09:20:52.542Z,99.90
2022-08-05T09:23:43.652Z,99.40
2022-08-05T09:26:32.412Z,99.90
2022-08-05T09:29:20.096Z,99.90
2022-08-05T09:32:51.273Z,96.80
2022-08-05T09:35:26.554Z,96.70
2022-08-05T09:38:18.081Z,96.70
2022-08-05T09:41:16.110Z,95.40
2022-08-05T09:44:06.929Z,94.40
2022-08-05T09:47:10.360Z,92.60
2022-08-05T09:50:01.681Z,92.80
2022-08-05T09:52:58.338Z,93.70
2022-08-05T09:55:57.383Z,92.30
2022-08-05T09:58:56.924Z,91.60
2022-08-05T10:01:47.404Z,87.90
2022-08-05T10:04:38.285Z,90.90
2022-08-05T10:08:10.831Z,92.80
2022-08-05T10:10:40.093Z,90.00
2022-08-05T10:13:46.272Z,88.40
2022-08-05T10:16:52.266Z,84.10
2022-08-05T10:20:03.703Z,84.90
2022-08-05T10:22:51.124Z,83.90
2022-08-05T10:25:39.875Z,83.70
2022-08-05T10:28:29.716Z,79.40
2022-08-05T10:32:51.661Z,79.40
2022-08-05T10:34:31.087Z,83.30
2022-08-05T10:37:19.134Z,82.80
2022-08-05T10:40:16.846Z,79.50
2022-08-05T10:43:23.206Z,79.10
2022-08-05T10:46:19.365Z,80.50
2022-08-05T10:49:16.425Z,80.70
2022-08-05T10:52:05.524Z,77.80
2022-08-05T10:55:03.848Z,74.10
2022-08-05T10:58:07.250Z,75.20
2022-08-05T11:01:02.969Z,75.10
2022-08-05T11:04:07.849Z,73.30
2022-08-05T11:07:06.596Z,73.60
2022-08-05T11:10:09.457Z,75.30
2022-08-05T11:12:57.798Z,73.30
2022-08-05T11:16:01.278Z,74.10
2022-08-05T11:20:11.054Z,72.60
2022-08-05T11:22:36.176Z,72.50
2022-08-05T11:26:05.499Z,67.60
2022-08-05T11:28:44.310Z,67.00
2022-08-05T11:31:57.943Z,71.80
2022-08-05T11:34:51.011Z,71.30
2022-08-05T11:38:26.447Z,70.60
2022-08-05T11:41:34.637Z,68.30
2022-08-05T11:44:40.494Z,65.70
2022-08-05T11:47:48.746Z,67.50
2022-08-05T11:50:38.489Z,67.30
2022-08-05T11:53:26.448Z,70.70
2022-08-05T11:56:21.823Z,63.80
2022-08-05T11:59:28.766Z,60.20
2022-08-05T12:02:33.017Z,68.50
2022-08-05T12:05:36.408Z,70.60
2022-08-05T12:08:28.646Z,65.60
2022-08-05T12:11:20.786Z,66.10
2022-08-05T12:14:10.274Z,66.20
2022-08-05T12:16:57.866Z,66.30
2022-08-05T12:20:27.657Z,64.80
2022-08-05T12:22:53.496Z,66.70
2022-08-05T12:25:53.879Z,63.20
2022-08-05T12:28:44.378Z,66.00
2022-08-05T12:31:43.797Z,67.30
2022-08-05T12:34:37.095Z,70.70
2022-08-05T12:37:24.626Z,66.70
2022-08-05T12:40:26.599Z,66.70
2022-08-05T12:43:21.090Z,65.40
2022-08-05T12:46:12.346Z,64.30
2022-08-05T12:49:05.887Z,65.10
2022-08-05T12:52:12.081Z,62.50
2022-08-05T12:55:02.262Z,64.50
2022-08-05T12:58:51.273Z,58.20
2022-08-05T13:01:59.858Z,60.60
2022-08-05T13:04:07.495Z,63.50
2022-08-05T13:06:58.189Z,60.30
2022-08-05T13:09:51.166Z,57.50
2022-08-05T13:12:51.118Z,61.90
2022-08-05T13:15:51.152Z,64.00
2022-08-05T13:18:40.468Z,59.80
2022-08-05T13:21:37.989Z,58.10
2022-08-05T13:24:51.247Z,56.70
2022-08-05T13:27:44.400Z,61.50
2022-08-05T13:30:40.227Z,62.20
2022-08-05T13:34:22.648Z,59.80
2022-08-05T13:36:36.500Z,62.30
2022-08-05T13:40:12.758Z,60.50
2022-08-05T13:42:31.141Z,61.70
2022-08-05T13:45:21.520Z,60.90
2022-08-05T13:48:56.700Z,59.60
2022-08-05T13:51:16.229Z,61.70
2022-08-05T13:54:11.769Z,56.40
2022-08-05T13:56:59.731Z,60.70
2022-08-05T13:59:57.493Z,60.60
2022-08-05T14:02:48.972Z,62.50
2022-08-05T14:06:04.494Z,56.40
2022-08-05T14:08:43.718Z,56.50
2022-08-05T14:11:33.240Z,57.50
2022-08-05T14:14:40.750Z,54.10
2022-08-05T14:17:29.704Z,52.50
2022-08-05T14:20:17.510Z,54.60
2022-08-05T14:23:06.040Z,55.70
2022-08-05T14:25:57.790Z,58.40
2022-08-05T14:28:52.298Z,56.20
2022-08-05T14:32:02.538Z,59.70
2022-08-05T14:34:47.233Z,59.50
2022-08-05T14:37:45.342Z,57.90
2022-08-05T14:40:36.145Z,55.10
2022-08-05T14:43:58.883Z,57.60
2022-08-05T14:46:35.339Z,58.10
2022-08-05T14:49:23.680Z,51.90
2022-08-05T14:52:51.896Z,57.80
2022-08-05T14:55:40.201Z,55.30
2022-08-05T14:58:27.985Z,55.30
2022-08-05T15:01:20.094Z,54.40
2022-08-05T15:04:13.556Z,54.30
2022-08-05T15:07:01.448Z,56.60
2022-08-05T15:09:54.179Z,54.60
2022-08-05T15:13:00.574Z,51.80
2022-08-05T15:15:55.648Z,54.70
2022-08-05T15:18:47.506Z,54.90
2022-08-05T15:21:36.984Z,56.50
2022-08-05T15:24:26.494Z,54.30
2022-08-05T15:27:13.974Z,54.00
2022-08-05T15:30:02.416Z,54.60
2022-08-05T15:32:51.079Z,55.80
2022-08-05T15:35:45.511Z,58.30
2022-08-05T15:38:42.139Z,59.40
2022-08-05T15:41:55.684Z,55.50
2022-08-05T15:44:42.091Z,58.10
2022-08-05T15:47:32.760Z,60.10
2022-08-05T15:50:25.198Z,56.80
2022-08-05T15:53:13.742Z,58.40
2022-08-05T15:56:05.646Z,58.60
2022-08-05T15:58:55.172Z,58.50
2022-08-05T16:01:52.885Z,57.10
2022-08-05T16:04:41.334Z,57.80
2022-08-05T16:07:29.782Z,61.80
2022-08-05T16:10:25.230Z,60.40
2022-08-05T16:13:19.324Z,62.00
2022-08-05T16:16:12.214Z,61.00
2022-08-05T16:19:00.075Z,63.00
2022-08-05T16:22:00.637Z,63.30
2022-08-05T16:24:51.189Z,65.10
2022-08-05T16:28:00.670Z,65.60
2022-08-05T16:30:50.493Z,65.80
2022-08-05T16:33:41.515Z,67.40
2022-08-05T16:36:29.663Z,66.10
2022-08-05T16:39:17.306Z,68.70
2022-08-05T16:42:14.562Z,68.30
2022-08-05T16:45:05.997Z,68.90
2022-08-05T16:48:25.560Z,69.50
2022-08-05T16:51:20.809Z,72.60
2022-08-05T16:54:17.530Z,74.00
2022-08-05T16:57:15.123Z,75.40
2022-08-05T17:00:11.443Z,76.10
2022-08-05T17:03:01.854Z,76.90
2022-08-05T17:05:53.985Z,77.30
2022-08-05T17:08:52.003Z,77.90
2022-08-05T17:11:48.478Z,78.90
2022-08-05T17:14:38.342Z,78.30
2022-08-05T17:17:42.169Z,80.00
2022-08-05T17:20:30.647Z,79.90
2022-08-05T17:24:05.943Z,82.30
2022-08-05T17:26:30.383Z,83.20
2022-08-05T17:29:22.563Z,84.80
2022-08-05T17:32:22.107Z,85.40
2022-08-05T17:35:15.634Z,86.70
2022-08-05T17:38:09.052Z,89.30
2022-08-05T17:40:58.643Z,90.60
2022-08-05T17:43:53.159Z,91.60
2022-08-05T17:46:41.089Z,92.30
2022-08-05T17:49:52.095Z,93.30
2022-08-05T17:52:52.698Z,94.00
2022-08-05T17:55:42.494Z,94.90
2022-08-05T17:58:36.491Z,95.70
2022-08-05T18:01:25.216Z,96.40
2022-08-05T18:04:13.295Z,97.20
2022-08-05T18:07:12.248Z,98.00
2022-08-05T18:10:06.535Z,99.00
2022-08-05T18:12:58.143Z,99.90
2022-08-05T18:15:47.243Z,99.90
2022-08-05T18:18:39.845Z,99.90
2022-08-05T18:22:07.301Z,99.90
2022-08-05T18:24:35.695Z,99.90
2022-08-05T18:27:23.765Z,99.90
2022-08-05T18:30:12.456Z,99.90
2022-08-05T18:33:02.682Z,99.90
2022-08-05T18:36:03.849Z,99.90
2022-08-05T18:38:54.966Z,99.90
2022-08-05T18:41:56.551Z,99.90
2022-08-05T18:44:49.317Z,99.90
2022-08-05T18:47:43.546Z,99.90
2022-08-05T18:50:49.825Z,99.90
2022-08-05T18:53:45.797Z,99.90
2022-08-05T18:56:38.174Z,99.90
2022-08-05T18:59:43.410Z,99.90
2022-08-05T19:02:35.817Z,99.90
2022-08-05T19:06:12.178Z,99.90
2022-08-05T19:08:36.039Z,99.90
2022-08-05T19:11:28.611Z,99.90
2022-08-05T19:14:44.790Z,99.90
2022-08-05T19:17:58.998Z,99.90
2022-08-05T19:20:41.367Z,99.90
2022-08-05T19:24:05.656Z,99.90
2022-08-05T19:26:55.040Z,99.90
2022-08-05T19:29:43.258Z,99.90
2022-08-05T19:32:32.097Z,99.90
2022-08-05T19:35:21.755Z,99.90
2022-08-05T19:38:09.745Z,99.90
2022-08-05T19:40:59.881Z,99.90
2022-08-05T19:44:05.476Z,99.90
2022-08-05T19:46:58.430Z,99.90
2022-08-05T19:49:48.056Z,99.90
2022-08-05T19:52:35.974Z,99.90
2022-08-05T19:56:18.414Z,99.90
2022-08-05T19:58:31.624Z,99.90
2022-08-05T20:01:40.847Z,99.90
2022-08-05T20:04:31.651Z,99.90
2022-08-05T20:07:46.538Z,99.90
2022-08-05T20:10:27.684Z,99.90
2022-08-05T20:13:16.680Z,99.90
2022-08-05T20:16:04.609Z,99.90
2022-08-05T20:18:55.430Z,99.90
2022-08-05T20:21:43.682Z,99.90
2022-08-05T20:24:33.227Z,99.90
2022-08-05T20:27:27.059Z,99.90
2022-08-05T20:30:15.075Z,99.90
2022-08-05T20:33:07.213Z,99.90
2022-08-05T20:35:57.534Z,99.90
2022-08-05T20:38:53.534Z,99.90
2022-08-05T20:41:43.793Z,99.90
2022-08-05T20:44:37.786Z,99.90
2022-08-05T20:47:31.787Z,99.90
2022-08-05T20:50:20.730Z,99.90
2022-08-05T20:53:16.324Z,99.90
2022-08-05T20:56:27.674Z,99.90
2022-08-05T20:59:26.283Z,99.90
2022-08-05T21:02:18.099Z,99.90
2022-08-05T21:05:06.688Z,99.90
2022-08-05T21:07:57.268Z,99.90
2022-08-05T21:10:49.388Z,99.90
2022-08-05T21:13:55.673Z,99.90
2022-08-05T21:16:44.435Z,99.90
2022-08-05T21:19:46.551Z,99.90
2022-08-05T21:22:36.176Z,99.90
2022-08-05T21:25:23.893Z,99.90
2022-08-05T21:28:30.690Z,99.90
2022-08-05T21:31:18.436Z,99.90
2022-08-05T21:34:06.431Z,99.90
2022-08-05T21:36:55.151Z,99.90
2022-08-05T21:39:43.109Z,99.90
2022-08-05T21:42:44.577Z,99.90
2022-08-05T21:45:51.825Z,99.90
2022-08-05T21:48:42.260Z,99.90
2022-08-05T21:52:21.547Z,99.90
2022-08-05T21:54:40.509Z,99.90
2022-08-05T21:57:31.946Z,99.90
2022-08-05T22:00:19.925Z,99.90
2022-08-05T22:03:15.172Z,99.90
2022-08-05T22:06:03.406Z,99.90
2022-08-05T22:08:53.635Z,99.90
2022-08-05T22:11:43.072Z,99.90
2022-08-05T22:14:37.872Z,99.90
2022-08-05T22:17:26.776Z,99.90
2022-08-05T22:20:20.504Z,99.90
2022-08-05T22:24:02.678Z,99.90
2022-08-05T22:26:56.100Z,99.90
2022-08-05T22:29:45.913Z,99.90
2022-08-05T22:32:35.092Z,99.90
2022-08-05T22:35:24.581Z,99.90
2022-08-05T22:38:12.787Z,99.90
2022-08-05T22:41:02.667Z,99.90
2022-08-05T22:43:59.358Z,99.90
2022-08-05T22:46:47.212Z,99.90
2022-08-05T22:50:17.629Z,99.90
2022-08-05T22:52:44.978Z,99.90
2022-08-05T22:55:37.203Z,99.90
2022-08-05T22:58:43.744Z,99.90
2022-08-05T23:01:50.737Z,99.90
2022-08-05T23:04:39.380Z,99.90
2022-08-05T23:07:27.789Z,99.90
2022-08-05T23:10:20.949Z,99.90
2022-08-05T23:13:11.423Z,99.90
2022-08-05T23:15:59.070Z,99.90
2022-08-05T23:18:47.417Z,99.90
2022-08-05T23:21:42.805Z,99.90
2022-08-05T23:24:36.743Z,99.90
2022-08-05T23:27:28.939Z,99.90
2022-08-05T23:30:19.188Z,99.90
2022-08-05T23:33:15.949Z,99.90
2022-08-05T23:36:07.028Z,99.90
2022-08-05T23:38:58.302Z,99.90
2022-08-05T23:41:48.512Z,99.90
2022-08-05T23:44:37.647Z,99.90
2022-08-05T23:47:33.561Z,99.90
2022-08-05T23:50:21.269Z,99.90
2022-08-05T23:53:22.419Z,99.90
2022-08-05T23:56:10.581Z,99.90
2022-08-05T23:58:58.696Z,99.90
